sensor_id;sensor_type;location;lat;lon;timestamp;P1;durP1;ratioP1;P2;durP2;ratioP2
1725;SDS011;41776;48.260;8.928;2023-03-04T00:00:38;131.97;;;37.47;;
1725;SDS011;41776;48.260;8.928;2023-03-04T00:03:07;123.17;;;35.07;;
1725;SDS011;41776;48.260;8.928;2023-03-04T00:05:34;117.37;;;34.30;;
1725;SDS011;41776;48.260;8.928;2023-03-04T00:08:01;116.50;;;35.67;;
1725;SDS011;41776;48.260;8.928;2023-03-04T00:10:28;113.80;;;35.50;;
1725;SDS011;41776;48.260;8.928;2023-03-04T00:12:56;127.30;;;35.90;;
1725;SDS011;41776;48.260;8.928;2023-03-04T00:15:22;138.57;;;37.77;;
1725;SDS011;41776;48.260;8.928;2023-03-04T00:17:49;158.27;;;40.67;;
1725;SDS011;41776;48.260;8.928;2023-03-04T00:20:16;158.37;;;43.10;;
1725;SDS011;41776;48.260;8.928;2023-03-04T00:22:42;188.17;;;44.40;;
1725;SDS011;41776;48.260;8.928;2023-03-04T00:25:09;188.70;;;46.87;;
1725;SDS011;41776;48.260;8.928;2023-03-04T00:27:35;161.97;;;43.47;;
1725;SDS011;41776;48.260;8.928;2023-03-04T00:30:04;153.97;;;39.77;;
1725;SDS011;41776;48.260;8.928;2023-03-04T00:32:31;148.03;;;38.90;;
1725;SDS011;41776;48.260;8.928;2023-03-04T00:34:58;150.40;;;39.90;;
1725;SDS011;41776;48.260;8.928;2023-03-04T00:37:24;129.77;;;37.10;;
1725;SDS011;41776;48.260;8.928;2023-03-04T00:39:51;159.77;;;40.33;;
1725;SDS011;41776;48.260;8.928;2023-03-04T00:42:17;148.77;;;39.80;;
1725;SDS011;41776;48.260;8.928;2023-03-04T00:44:44;159.13;;;41.03;;
1725;SDS011;41776;48.260;8.928;2023-03-04T00:47:12;140.93;;;39.97;;
1725;SDS011;41776;48.260;8.928;2023-03-04T00:49:38;161.97;;;42.07;;
1725;SDS011;41776;48.260;8.928;2023-03-04T00:52:05;165.17;;;42.43;;
1725;SDS011;41776;48.260;8.928;2023-03-04T00:54:32;171.83;;;42.00;;
1725;SDS011;41776;48.260;8.928;2023-03-04T00:56:58;165.77;;;42.43;;
1725;SDS011;41776;48.260;8.928;2023-03-04T00:59:25;147.40;;;42.43;;
1725;SDS011;41776;48.260;8.928;2023-03-04T01:01:51;178.37;;;43.73;;
1725;SDS011;41776;48.260;8.928;2023-03-04T01:04:19;171.43;;;43.97;;
1725;SDS011;41776;48.260;8.928;2023-03-04T01:06:45;190.67;;;48.37;;
1725;SDS011;41776;48.260;8.928;2023-03-04T01:09:12;195.77;;;49.20;;
1725;SDS011;41776;48.260;8.928;2023-03-04T01:11:39;183.03;;;46.97;;
1725;SDS011;41776;48.260;8.928;2023-03-04T01:14:05;183.23;;;47.00;;
1725;SDS011;41776;48.260;8.928;2023-03-04T01:16:32;180.73;;;45.53;;
1725;SDS011;41776;48.260;8.928;2023-03-04T01:18:58;184.47;;;47.70;;
1725;SDS011;41776;48.260;8.928;2023-03-04T01:21:26;194.83;;;46.17;;
1725;SDS011;41776;48.260;8.928;2023-03-04T01:23:53;177.23;;;45.63;;
1725;SDS011;41776;48.260;8.928;2023-03-04T01:26:19;193.93;;;49.13;;
1725;SDS011;41776;48.260;8.928;2023-03-04T01:28:46;190.03;;;47.83;;
1725;SDS011;41776;48.260;8.928;2023-03-04T01:31:13;152.83;;;42.10;;
1725;SDS011;41776;48.260;8.928;2023-03-04T01:33:39;144.03;;;42.27;;
1725;SDS011;41776;48.260;8.928;2023-03-04T01:36:06;145.13;;;39.47;;
1725;SDS011;41776;48.260;8.928;2023-03-04T01:38:34;146.80;;;38.90;;
1725;SDS011;41776;48.260;8.928;2023-03-04T01:41:00;135.93;;;37.87;;
1725;SDS011;41776;48.260;8.928;2023-03-04T01:43:28;148.43;;;38.90;;
1725;SDS011;41776;48.260;8.928;2023-03-04T01:45:56;150.17;;;41.63;;
1725;SDS011;41776;48.260;8.928;2023-03-04T01:48:24;163.87;;;40.97;;
1725;SDS011;41776;48.260;8.928;2023-03-04T01:50:52;142.10;;;38.07;;
1725;SDS011;41776;48.260;8.928;2023-03-04T01:53:20;135.97;;;38.87;;
1725;SDS011;41776;48.260;8.928;2023-03-04T01:55:50;176.70;;;44.33;;
1725;SDS011;41776;48.260;8.928;2023-03-04T01:58:17;178.20;;;43.43;;
1725;SDS011;41776;48.260;8.928;2023-03-04T02:00:44;162.20;;;43.27;;
1725;SDS011;41776;48.260;8.928;2023-03-04T02:03:11;194.10;;;47.17;;
1725;SDS011;41776;48.260;8.928;2023-03-04T02:05:41;217.57;;;51.30;;
1725;SDS011;41776;48.260;8.928;2023-03-04T02:08:09;204.83;;;50.73;;
1725;SDS011;41776;48.260;8.928;2023-03-04T02:10:37;217.67;;;51.90;;
1725;SDS011;41776;48.260;8.928;2023-03-04T02:13:06;183.07;;;45.30;;
1725;SDS011;41776;48.260;8.928;2023-03-04T02:15:33;176.73;;;43.83;;
1725;SDS011;41776;48.260;8.928;2023-03-04T02:18:00;185.90;;;44.10;;
1725;SDS011;41776;48.260;8.928;2023-03-04T02:20:30;175.23;;;43.40;;
1725;SDS011;41776;48.260;8.928;2023-03-04T02:23:06;150.97;;;41.57;;
1725;SDS011;41776;48.260;8.928;2023-03-04T02:25:38;180.00;;;42.47;;
1725;SDS011;41776;48.260;8.928;2023-03-04T02:28:11;180.17;;;44.50;;
1725;SDS011;41776;48.260;8.928;2023-03-04T02:30:37;172.27;;;42.90;;
1725;SDS011;41776;48.260;8.928;2023-03-04T02:33:04;169.37;;;45.30;;
1725;SDS011;41776;48.260;8.928;2023-03-04T02:35:31;188.77;;;46.57;;
1725;SDS011;41776;48.260;8.928;2023-03-04T02:37:58;155.40;;;41.60;;
1725;SDS011;41776;48.260;8.928;2023-03-04T02:40:25;167.53;;;43.00;;
1725;SDS011;41776;48.260;8.928;2023-03-04T02:42:57;186.00;;;44.93;;
1725;SDS011;41776;48.260;8.928;2023-03-04T02:45:34;178.83;;;43.30;;
1725;SDS011;41776;48.260;8.928;2023-03-04T02:48:04;202.20;;;47.50;;
1725;SDS011;41776;48.260;8.928;2023-03-04T02:50:33;190.17;;;47.30;;
1725;SDS011;41776;48.260;8.928;2023-03-04T02:53:01;183.63;;;45.33;;
1725;SDS011;41776;48.260;8.928;2023-03-04T02:55:29;166.80;;;44.13;;
1725;SDS011;41776;48.260;8.928;2023-03-04T02:57:56;198.10;;;47.27;;
1725;SDS011;41776;48.260;8.928;2023-03-04T03:00:23;205.43;;;50.13;;
1725;SDS011;41776;48.260;8.928;2023-03-04T03:02:54;230.97;;;52.37;;
1725;SDS011;41776;48.260;8.928;2023-03-04T03:05:22;199.13;;;46.47;;
1725;SDS011;41776;48.260;8.928;2023-03-04T03:07:51;164.13;;;42.03;;
1725;SDS011;41776;48.260;8.928;2023-03-04T03:10:17;195.10;;;47.40;;
1725;SDS011;41776;48.260;8.928;2023-03-04T03:12:44;205.33;;;48.00;;
1725;SDS011;41776;48.260;8.928;2023-03-04T03:15:12;174.13;;;42.80;;
1725;SDS011;41776;48.260;8.928;2023-03-04T03:17:39;217.57;;;48.80;;
1725;SDS011;41776;48.260;8.928;2023-03-04T03:20:08;213.70;;;50.23;;
1725;SDS011;41776;48.260;8.928;2023-03-04T03:22:36;190.83;;;46.77;;
1725;SDS011;41776;48.260;8.928;2023-03-04T03:25:03;191.77;;;48.70;;
1725;SDS011;41776;48.260;8.928;2023-03-04T03:27:30;203.93;;;49.80;;
1725;SDS011;41776;48.260;8.928;2023-03-04T03:29:57;235.27;;;50.10;;
1725;SDS011;41776;48.260;8.928;2023-03-04T03:32:23;227.73;;;52.00;;
1725;SDS011;41776;48.260;8.928;2023-03-04T03:34:50;225.43;;;50.87;;
1725;SDS011;41776;48.260;8.928;2023-03-04T03:37:18;224.67;;;50.97;;
1725;SDS011;41776;48.260;8.928;2023-03-04T03:39:44;187.60;;;45.80;;
1725;SDS011;41776;48.260;8.928;2023-03-04T03:42:11;205.57;;;48.67;;
1725;SDS011;41776;48.260;8.928;2023-03-04T03:44:37;204.47;;;50.07;;
1725;SDS011;41776;48.260;8.928;2023-03-04T03:47:04;207.33;;;47.20;;
1725;SDS011;41776;48.260;8.928;2023-03-04T03:49:31;195.90;;;47.53;;
1725;SDS011;41776;48.260;8.928;2023-03-04T03:51:58;206.40;;;48.77;;
1725;SDS011;41776;48.260;8.928;2023-03-04T03:54:26;203.10;;;47.63;;
1725;SDS011;41776;48.260;8.928;2023-03-04T03:56:52;210.27;;;48.73;;
1725;SDS011;41776;48.260;8.928;2023-03-04T03:59:19;216.73;;;51.27;;
1725;SDS011;41776;48.260;8.928;2023-03-04T04:01:45;237.90;;;51.63;;
1725;SDS011;41776;48.260;8.928;2023-03-04T04:04:12;226.03;;;52.03;;
1725;SDS011;41776;48.260;8.928;2023-03-04T04:06:39;267.23;;;77.37;;
1725;SDS011;41776;48.260;8.928;2023-03-04T04:09:05;214.87;;;57.17;;
1725;SDS011;41776;48.260;8.928;2023-03-04T04:11:33;221.10;;;54.50;;
1725;SDS011;41776;48.260;8.928;2023-03-04T04:13:59;211.43;;;50.73;;
1725;SDS011;41776;48.260;8.928;2023-03-04T04:16:26;244.37;;;56.83;;
1725;SDS011;41776;48.260;8.928;2023-03-04T04:18:52;236.63;;;54.33;;
1725;SDS011;41776;48.260;8.928;2023-03-04T04:21:21;200.40;;;47.57;;
1725;SDS011;41776;48.260;8.928;2023-03-04T04:23:47;188.90;;;46.20;;
1725;SDS011;41776;48.260;8.928;2023-03-04T04:26:15;225.53;;;53.60;;
1725;SDS011;41776;48.260;8.928;2023-03-04T04:28:45;217.10;;;52.37;;
1725;SDS011;41776;48.260;8.928;2023-03-04T04:31:12;208.07;;;52.57;;
1725;SDS011;41776;48.260;8.928;2023-03-04T04:33:38;218.63;;;53.50;;
1725;SDS011;41776;48.260;8.928;2023-03-04T04:36:05;211.57;;;48.50;;
1725;SDS011;41776;48.260;8.928;2023-03-04T04:38:33;206.50;;;46.00;;
1725;SDS011;41776;48.260;8.928;2023-03-04T04:41:00;188.97;;;44.93;;
1725;SDS011;41776;48.260;8.928;2023-03-04T04:43:26;172.43;;;44.03;;
1725;SDS011;41776;48.260;8.928;2023-03-04T04:45:54;183.77;;;45.40;;
1725;SDS011;41776;48.260;8.928;2023-03-04T04:48:21;165.80;;;43.40;;
1725;SDS011;41776;48.260;8.928;2023-03-04T04:50:52;197.23;;;48.53;;
1725;SDS011;41776;48.260;8.928;2023-03-04T04:53:19;221.30;;;52.13;;
1725;SDS011;41776;48.260;8.928;2023-03-04T04:55:46;217.03;;;50.47;;
1725;SDS011;41776;48.260;8.928;2023-03-04T04:58:12;229.47;;;51.00;;
1725;SDS011;41776;48.260;8.928;2023-03-04T05:00:39;197.03;;;48.80;;
1725;SDS011;41776;48.260;8.928;2023-03-04T05:03:07;211.53;;;50.23;;
1725;SDS011;41776;48.260;8.928;2023-03-04T05:05:36;220.70;;;53.03;;
1725;SDS011;41776;48.260;8.928;2023-03-04T05:08:06;228.57;;;52.63;;
1725;SDS011;41776;48.260;8.928;2023-03-04T05:10:33;243.17;;;51.37;;
1725;SDS011;41776;48.260;8.928;2023-03-04T05:13:00;196.80;;;49.07;;
1725;SDS011;41776;48.260;8.928;2023-03-04T05:15:26;226.83;;;51.27;;
1725;SDS011;41776;48.260;8.928;2023-03-04T05:17:53;225.47;;;52.40;;
1725;SDS011;41776;48.260;8.928;2023-03-04T05:20:21;195.50;;;50.47;;
1725;SDS011;41776;48.260;8.928;2023-03-04T05:22:51;272.63;;;59.07;;
1725;SDS011;41776;48.260;8.928;2023-03-04T05:25:17;251.03;;;57.57;;
1725;SDS011;41776;48.260;8.928;2023-03-04T05:27:44;282.30;;;60.30;;
1725;SDS011;41776;48.260;8.928;2023-03-04T05:30:11;284.73;;;61.13;;
1725;SDS011;41776;48.260;8.928;2023-03-04T05:32:38;245.93;;;56.03;;
1725;SDS011;41776;48.260;8.928;2023-03-04T05:35:05;240.37;;;54.03;;
1725;SDS011;41776;48.260;8.928;2023-03-04T05:37:33;237.00;;;55.83;;
1725;SDS011;41776;48.260;8.928;2023-03-04T05:39:59;245.03;;;54.83;;
1725;SDS011;41776;48.260;8.928;2023-03-04T05:42:26;266.47;;;58.03;;
1725;SDS011;41776;48.260;8.928;2023-03-04T05:44:52;287.20;;;59.67;;
1725;SDS011;41776;48.260;8.928;2023-03-04T05:47:19;246.87;;;57.40;;
1725;SDS011;41776;48.260;8.928;2023-03-04T05:49:46;270.93;;;61.63;;
1725;SDS011;41776;48.260;8.928;2023-03-04T05:52:12;288.40;;;62.87;;
1725;SDS011;41776;48.260;8.928;2023-03-04T05:54:40;276.07;;;61.23;;
1725;SDS011;41776;48.260;8.928;2023-03-04T05:57:06;252.77;;;58.73;;
1725;SDS011;41776;48.260;8.928;2023-03-04T05:59:33;250.87;;;59.60;;
1725;SDS011;41776;48.260;8.928;2023-03-04T06:01:59;255.60;;;57.97;;
1725;SDS011;41776;48.260;8.928;2023-03-04T06:04:28;235.73;;;54.90;;
1725;SDS011;41776;48.260;8.928;2023-03-04T06:06:54;271.83;;;57.50;;
1725;SDS011;41776;48.260;8.928;2023-03-04T06:09:21;258.57;;;57.90;;
1725;SDS011;41776;48.260;8.928;2023-03-04T06:11:49;244.50;;;54.50;;
1725;SDS011;41776;48.260;8.928;2023-03-04T06:14:15;225.70;;;52.73;;
1725;SDS011;41776;48.260;8.928;2023-03-04T06:16:42;242.43;;;54.90;;
1725;SDS011;41776;48.260;8.928;2023-03-04T06:19:08;217.77;;;54.37;;
1725;SDS011;41776;48.260;8.928;2023-03-04T06:21:35;238.27;;;55.57;;
1725;SDS011;41776;48.260;8.928;2023-03-04T06:24:03;271.57;;;58.90;;
1725;SDS011;41776;48.260;8.928;2023-03-04T06:26:30;237.73;;;55.50;;
1725;SDS011;41776;48.260;8.928;2023-03-04T06:29:00;231.07;;;52.87;;
1725;SDS011;41776;48.260;8.928;2023-03-04T06:31:26;205.43;;;51.07;;
1725;SDS011;41776;48.260;8.928;2023-03-04T06:33:53;238.73;;;53.73;;
1725;SDS011;41776;48.260;8.928;2023-03-04T06:36:20;210.13;;;53.43;;
1725;SDS011;41776;48.260;8.928;2023-03-04T06:38:48;232.63;;;55.63;;
1725;SDS011;41776;48.260;8.928;2023-03-04T06:41:15;263.47;;;57.67;;
1725;SDS011;41776;48.260;8.928;2023-03-04T06:43:41;256.30;;;57.07;;
1725;SDS011;41776;48.260;8.928;2023-03-04T06:46:09;229.03;;;54.50;;
1725;SDS011;41776;48.260;8.928;2023-03-04T06:48:36;221.53;;;54.43;;
1725;SDS011;41776;48.260;8.928;2023-03-04T06:51:05;208.40;;;49.47;;
1725;SDS011;41776;48.260;8.928;2023-03-04T06:53:32;226.10;;;51.37;;
1725;SDS011;41776;48.260;8.928;2023-03-04T06:55:59;181.83;;;47.47;;
1725;SDS011;41776;48.260;8.928;2023-03-04T06:58:25;204.70;;;49.67;;
1725;SDS011;41776;48.260;8.928;2023-03-04T07:00:52;207.60;;;50.63;;
1725;SDS011;41776;48.260;8.928;2023-03-04T07:03:20;237.37;;;54.33;;
1725;SDS011;41776;48.260;8.928;2023-03-04T07:05:47;222.03;;;52.17;;
1725;SDS011;41776;48.260;8.928;2023-03-04T07:08:14;218.10;;;49.67;;
1725;SDS011;41776;48.260;8.928;2023-03-04T07:10:40;194.00;;;49.53;;
1725;SDS011;41776;48.260;8.928;2023-03-04T07:13:07;197.87;;;49.60;;
1725;SDS011;41776;48.260;8.928;2023-03-04T07:15:34;205.57;;;49.30;;
1725;SDS011;41776;48.260;8.928;2023-03-04T07:18:00;209.93;;;50.37;;
1725;SDS011;41776;48.260;8.928;2023-03-04T07:20:31;212.47;;;52.80;;
1725;SDS011;41776;48.260;8.928;2023-03-04T07:22:58;207.07;;;50.87;;
1725;SDS011;41776;48.260;8.928;2023-03-04T07:25:24;184.60;;;49.37;;
1725;SDS011;41776;48.260;8.928;2023-03-04T07:27:51;199.23;;;52.33;;
1725;SDS011;41776;48.260;8.928;2023-03-04T07:30:18;203.13;;;52.43;;
1725;SDS011;41776;48.260;8.928;2023-03-04T07:32:44;189.73;;;48.60;;
1725;SDS011;41776;48.260;8.928;2023-03-04T07:35:11;205.23;;;50.33;;
1725;SDS011;41776;48.260;8.928;2023-03-04T07:37:39;213.17;;;53.60;;
1725;SDS011;41776;48.260;8.928;2023-03-04T07:40:06;229.90;;;52.90;;
1725;SDS011;41776;48.260;8.928;2023-03-04T07:42:34;235.77;;;56.30;;
1725;SDS011;41776;48.260;8.928;2023-03-04T07:45:01;243.97;;;59.50;;
1725;SDS011;41776;48.260;8.928;2023-03-04T07:47:31;242.30;;;61.63;;
1725;SDS011;41776;48.260;8.928;2023-03-04T07:49:57;224.97;;;58.10;;
1725;SDS011;41776;48.260;8.928;2023-03-04T07:52:24;229.70;;;58.90;;
1725;SDS011;41776;48.260;8.928;2023-03-04T07:54:52;225.67;;;57.87;;
1725;SDS011;41776;48.260;8.928;2023-03-04T07:57:18;222.43;;;73.50;;
1725;SDS011;41776;48.260;8.928;2023-03-04T07:59:45;179.87;;;53.80;;
1725;SDS011;41776;48.260;8.928;2023-03-04T08:02:11;171.43;;;52.73;;
1725;SDS011;41776;48.260;8.928;2023-03-04T08:04:39;171.83;;;52.30;;
1725;SDS011;41776;48.260;8.928;2023-03-04T08:07:08;171.37;;;52.10;;
1725;SDS011;41776;48.260;8.928;2023-03-04T08:09:35;167.57;;;50.10;;
1725;SDS011;41776;48.260;8.928;2023-03-04T08:12:03;155.97;;;46.70;;
1725;SDS011;41776;48.260;8.928;2023-03-04T08:14:31;143.93;;;42.70;;
1725;SDS011;41776;48.260;8.928;2023-03-04T08:16:57;129.37;;;41.60;;
1725;SDS011;41776;48.260;8.928;2023-03-04T08:19:24;126.90;;;40.77;;
1725;SDS011;41776;48.260;8.928;2023-03-04T08:21:52;129.73;;;42.93;;
1725;SDS011;41776;48.260;8.928;2023-03-04T08:24:22;120.57;;;39.83;;
1725;SDS011;41776;48.260;8.928;2023-03-04T08:26:48;115.97;;;40.37;;
1725;SDS011;41776;48.260;8.928;2023-03-04T08:29:17;141.43;;;43.10;;
1725;SDS011;41776;48.260;8.928;2023-03-04T08:31:46;132.83;;;42.80;;
1725;SDS011;41776;48.260;8.928;2023-03-04T08:34:12;130.60;;;43.53;;
1725;SDS011;41776;48.260;8.928;2023-03-04T08:36:42;136.30;;;44.97;;
1725;SDS011;41776;48.260;8.928;2023-03-04T08:39:10;122.83;;;42.13;;
1725;SDS011;41776;48.260;8.928;2023-03-04T08:41:38;136.50;;;42.73;;
1725;SDS011;41776;48.260;8.928;2023-03-04T08:44:05;126.03;;;44.33;;
1725;SDS011;41776;48.260;8.928;2023-03-04T08:46:35;140.03;;;43.73;;
1725;SDS011;41776;48.260;8.928;2023-03-04T08:49:03;139.97;;;46.40;;
1725;SDS011;41776;48.260;8.928;2023-03-04T08:51:30;128.37;;;43.17;;
1725;SDS011;41776;48.260;8.928;2023-03-04T08:53:57;128.17;;;43.33;;
1725;SDS011;41776;48.260;8.928;2023-03-04T08:56:23;131.37;;;40.73;;
1725;SDS011;41776;48.260;8.928;2023-03-04T08:58:50;109.00;;;38.97;;
1725;SDS011;41776;48.260;8.928;2023-03-04T09:01:16;109.30;;;37.57;;
1725;SDS011;41776;48.260;8.928;2023-03-04T09:03:44;112.03;;;37.53;;
1725;SDS011;41776;48.260;8.928;2023-03-04T09:06:11;113.87;;;38.27;;
1725;SDS011;41776;48.260;8.928;2023-03-04T09:08:39;111.90;;;37.87;;
1725;SDS011;41776;48.260;8.928;2023-03-04T09:11:06;105.17;;;37.40;;
1725;SDS011;41776;48.260;8.928;2023-03-04T09:13:33;116.63;;;39.40;;
1725;SDS011;41776;48.260;8.928;2023-03-04T09:15:59;102.00;;;38.17;;
1725;SDS011;41776;48.260;8.928;2023-03-04T09:18:26;113.73;;;37.27;;
1725;SDS011;41776;48.260;8.928;2023-03-04T09:20:54;113.23;;;38.70;;
1725;SDS011;41776;48.260;8.928;2023-03-04T09:23:21;106.20;;;38.83;;
1725;SDS011;41776;48.260;8.928;2023-03-04T09:25:48;102.30;;;37.70;;
1725;SDS011;41776;48.260;8.928;2023-03-04T09:28:15;106.03;;;36.37;;
1725;SDS011;41776;48.260;8.928;2023-03-04T09:30:42;90.27;;;33.80;;
1725;SDS011;41776;48.260;8.928;2023-03-04T09:33:09;89.43;;;33.60;;
1725;SDS011;41776;48.260;8.928;2023-03-04T09:35:36;91.37;;;32.67;;
1725;SDS011;41776;48.260;8.928;2023-03-04T09:38:03;88.73;;;31.70;;
1725;SDS011;41776;48.260;8.928;2023-03-04T09:40:31;88.83;;;31.67;;
1725;SDS011;41776;48.260;8.928;2023-03-04T09:43:02;75.43;;;29.63;;
1725;SDS011;41776;48.260;8.928;2023-03-04T09:45:33;83.17;;;30.50;;
1725;SDS011;41776;48.260;8.928;2023-03-04T09:48:03;79.80;;;30.23;;
1725;SDS011;41776;48.260;8.928;2023-03-04T09:50:32;76.33;;;26.80;;
1725;SDS011;41776;48.260;8.928;2023-03-04T09:53:11;70.20;;;25.33;;
1725;SDS011;41776;48.260;8.928;2023-03-04T09:55:45;61.83;;;24.57;;
1725;SDS011;41776;48.260;8.928;2023-03-04T09:58:19;67.13;;;26.97;;
1725;SDS011;41776;48.260;8.928;2023-03-04T10:00:54;73.63;;;26.67;;
1725;SDS011;41776;48.260;8.928;2023-03-04T10:03:23;74.40;;;27.13;;
1725;SDS011;41776;48.260;8.928;2023-03-04T10:05:54;66.07;;;26.17;;
1725;SDS011;41776;48.260;8.928;2023-03-04T10:08:32;60.53;;;25.73;;
1725;SDS011;41776;48.260;8.928;2023-03-04T10:11:04;70.57;;;27.27;;
1725;SDS011;41776;48.260;8.928;2023-03-04T10:13:37;73.57;;;28.93;;
1725;SDS011;41776;48.260;8.928;2023-03-04T10:16:09;73.03;;;26.73;;
1725;SDS011;41776;48.260;8.928;2023-03-04T10:18:41;79.80;;;33.53;;
1725;SDS011;41776;48.260;8.928;2023-03-04T10:21:14;65.23;;;25.07;;
1725;SDS011;41776;48.260;8.928;2023-03-04T10:23:46;60.77;;;24.77;;
1725;SDS011;41776;48.260;8.928;2023-03-04T10:26:15;63.27;;;24.47;;
1725;SDS011;41776;48.260;8.928;2023-03-04T10:29:01;65.90;;;23.63;;
1725;SDS011;41776;48.260;8.928;2023-03-04T10:32:13;66.13;;;24.30;;
1725;SDS011;41776;48.260;8.928;2023-03-04T10:34:48;66.37;;;24.40;;
1725;SDS011;41776;48.260;8.928;2023-03-04T10:37:18;63.00;;;23.87;;
1725;SDS011;41776;48.260;8.928;2023-03-04T10:39:46;68.17;;;25.20;;
1725;SDS011;41776;48.260;8.928;2023-03-04T10:42:22;66.40;;;25.83;;
1725;SDS011;41776;48.260;8.928;2023-03-04T10:44:55;69.53;;;25.57;;
1725;SDS011;41776;48.260;8.928;2023-03-04T10:47:23;65.17;;;25.97;;
1725;SDS011;41776;48.260;8.928;2023-03-04T10:49:52;68.40;;;26.17;;
1725;SDS011;41776;48.260;8.928;2023-03-04T10:52:24;68.70;;;24.50;;
1725;SDS011;41776;48.260;8.928;2023-03-04T10:54:55;61.13;;;24.70;;
1725;SDS011;41776;48.260;8.928;2023-03-04T10:57:23;65.33;;;25.07;;
1725;SDS011;41776;48.260;8.928;2023-03-04T10:59:58;69.47;;;25.03;;
1725;SDS011;41776;48.260;8.928;2023-03-04T11:02:27;56.47;;;23.60;;
1725;SDS011;41776;48.260;8.928;2023-03-04T11:04:56;61.97;;;23.33;;
1725;SDS011;41776;48.260;8.928;2023-03-04T11:07:31;50.07;;;22.03;;
1725;SDS011;41776;48.260;8.928;2023-03-04T11:10:12;58.40;;;20.87;;
1725;SDS011;41776;48.260;8.928;2023-03-04T11:12:47;54.80;;;19.17;;
1725;SDS011;41776;48.260;8.928;2023-03-04T11:15:18;54.93;;;19.83;;
1725;SDS011;41776;48.260;8.928;2023-03-04T11:17:49;47.10;;;17.63;;
1725;SDS011;41776;48.260;8.928;2023-03-04T11:20:25;48.43;;;18.87;;
1725;SDS011;41776;48.260;8.928;2023-03-04T11:22:56;54.40;;;19.67;;
1725;SDS011;41776;48.260;8.928;2023-03-04T11:25:28;46.27;;;18.90;;
1725;SDS011;41776;48.260;8.928;2023-03-04T11:27:58;46.30;;;18.30;;
1725;SDS011;41776;48.260;8.928;2023-03-04T11:30:31;51.47;;;18.47;;
1725;SDS011;41776;48.260;8.928;2023-03-04T11:33:04;51.47;;;20.83;;
1725;SDS011;41776;48.260;8.928;2023-03-04T11:35:38;53.47;;;19.57;;
1725;SDS011;41776;48.260;8.928;2023-03-04T11:38:14;51.80;;;20.40;;
1725;SDS011;41776;48.260;8.928;2023-03-04T11:40:46;51.77;;;19.53;;
1725;SDS011;41776;48.260;8.928;2023-03-04T11:43:17;52.10;;;19.23;;
1725;SDS011;41776;48.260;8.928;2023-03-04T11:45:52;48.43;;;18.37;;
1725;SDS011;41776;48.260;8.928;2023-03-04T11:48:32;47.37;;;18.00;;
1725;SDS011;41776;48.260;8.928;2023-03-04T11:51:11;51.80;;;23.33;;
1725;SDS011;41776;48.260;8.928;2023-03-04T11:53:49;50.67;;;18.40;;
1725;SDS011;41776;48.260;8.928;2023-03-04T11:56:31;41.23;;;17.30;;
1725;SDS011;41776;48.260;8.928;2023-03-04T11:59:14;43.20;;;18.03;;
1725;SDS011;41776;48.260;8.928;2023-03-04T12:01:52;49.47;;;17.30;;
1725;SDS011;41776;48.260;8.928;2023-03-04T12:04:29;45.10;;;19.17;;
1725;SDS011;41776;48.260;8.928;2023-03-04T12:07:12;50.77;;;18.60;;
1725;SDS011;41776;48.260;8.928;2023-03-04T12:09:52;45.27;;;17.10;;
1725;SDS011;41776;48.260;8.928;2023-03-04T12:12:44;44.30;;;18.50;;
1725;SDS011;41776;48.260;8.928;2023-03-04T12:15:40;46.37;;;17.53;;
1725;SDS011;41776;48.260;8.928;2023-03-04T12:21:07;47.77;;;18.07;;
1725;SDS011;41776;48.260;8.928;2023-03-04T12:23:45;45.90;;;18.83;;
1725;SDS011;41776;48.260;8.928;2023-03-04T12:26:39;46.50;;;18.40;;
1725;SDS011;41776;48.260;8.928;2023-03-04T12:29:17;44.47;;;18.20;;
1725;SDS011;41776;48.260;8.928;2023-03-04T12:31:52;51.00;;;18.47;;
1725;SDS011;41776;48.260;8.928;2023-03-04T12:34:35;50.77;;;19.17;;
1725;SDS011;41776;48.260;8.928;2023-03-04T12:37:11;55.83;;;24.00;;
1725;SDS011;41776;48.260;8.928;2023-03-04T12:40:07;49.23;;;19.43;;
1725;SDS011;41776;48.260;8.928;2023-03-04T12:42:53;46.23;;;18.70;;
1725;SDS011;41776;48.260;8.928;2023-03-04T12:45:31;50.93;;;19.77;;
1725;SDS011;41776;48.260;8.928;2023-03-04T12:48:08;50.80;;;18.73;;
1725;SDS011;41776;48.260;8.928;2023-03-04T12:50:46;43.40;;;17.83;;
1725;SDS011;41776;48.260;8.928;2023-03-04T12:53:29;46.43;;;18.50;;
1725;SDS011;41776;48.260;8.928;2023-03-04T12:56:03;42.10;;;17.47;;
1725;SDS011;41776;48.260;8.928;2023-03-04T12:58:31;46.53;;;19.03;;
1725;SDS011;41776;48.260;8.928;2023-03-04T13:01:04;51.03;;;18.90;;
1725;SDS011;41776;48.260;8.928;2023-03-04T13:03:40;49.23;;;18.77;;
1725;SDS011;41776;48.260;8.928;2023-03-04T13:06:19;50.67;;;19.10;;
1725;SDS011;41776;48.260;8.928;2023-03-04T13:08:57;46.90;;;18.97;;
1725;SDS011;41776;48.260;8.928;2023-03-04T13:11:42;45.60;;;18.90;;
1725;SDS011;41776;48.260;8.928;2023-03-04T13:14:30;53.67;;;19.17;;
1725;SDS011;41776;48.260;8.928;2023-03-04T13:17:00;46.20;;;17.33;;
1725;SDS011;41776;48.260;8.928;2023-03-04T13:19:44;48.10;;;18.10;;
1725;SDS011;41776;48.260;8.928;2023-03-04T13:22:25;43.63;;;17.27;;
1725;SDS011;41776;48.260;8.928;2023-03-04T13:24:58;43.17;;;16.43;;
1725;SDS011;41776;48.260;8.928;2023-03-04T13:27:43;45.50;;;16.70;;
1725;SDS011;41776;48.260;8.928;2023-03-04T13:33:45;47.13;;;18.20;;
1725;SDS011;41776;48.260;8.928;2023-03-04T13:48:00;42.30;;;16.83;;
1725;SDS011;41776;48.260;8.928;2023-03-04T13:50:38;44.63;;;16.73;;
1725;SDS011;41776;48.260;8.928;2023-03-04T13:53:29;45.67;;;17.67;;
1725;SDS011;41776;48.260;8.928;2023-03-04T13:56:08;40.97;;;16.93;;
1725;SDS011;41776;48.260;8.928;2023-03-04T13:58:37;44.90;;;17.57;;
1725;SDS011;41776;48.260;8.928;2023-03-04T14:01:04;38.13;;;15.93;;
1725;SDS011;41776;48.260;8.928;2023-03-04T14:03:45;41.23;;;16.37;;
1725;SDS011;41776;48.260;8.928;2023-03-04T14:06:20;37.07;;;15.87;;
1725;SDS011;41776;48.260;8.928;2023-03-04T14:08:47;40.67;;;15.57;;
1725;SDS011;41776;48.260;8.928;2023-03-04T14:11:17;39.07;;;15.53;;
1725;SDS011;41776;48.260;8.928;2023-03-04T14:13:50;38.47;;;15.80;;
1725;SDS011;41776;48.260;8.928;2023-03-04T14:16:20;40.20;;;15.80;;
1725;SDS011;41776;48.260;8.928;2023-03-04T14:19:02;33.17;;;14.87;;
1725;SDS011;41776;48.260;8.928;2023-03-04T14:21:32;33.40;;;13.63;;
1725;SDS011;41776;48.260;8.928;2023-03-04T14:24:02;35.43;;;14.73;;
1725;SDS011;41776;48.260;8.928;2023-03-04T14:26:31;37.17;;;15.77;;
1725;SDS011;41776;48.260;8.928;2023-03-04T14:28:58;39.60;;;15.43;;
1725;SDS011;41776;48.260;8.928;2023-03-04T14:31:27;34.80;;;14.43;;
1725;SDS011;41776;48.260;8.928;2023-03-04T14:33:56;36.77;;;15.47;;
1725;SDS011;41776;48.260;8.928;2023-03-04T14:36:26;34.23;;;14.83;;
1725;SDS011;41776;48.260;8.928;2023-03-04T14:38:57;32.33;;;14.50;;
1725;SDS011;41776;48.260;8.928;2023-03-04T14:41:27;34.87;;;15.30;;
1725;SDS011;41776;48.260;8.928;2023-03-04T14:44:01;32.80;;;14.70;;
1725;SDS011;41776;48.260;8.928;2023-03-04T14:46:34;32.63;;;14.40;;
1725;SDS011;41776;48.260;8.928;2023-03-04T14:49:05;34.77;;;14.93;;
1725;SDS011;41776;48.260;8.928;2023-03-04T14:51:39;32.67;;;15.97;;
1725;SDS011;41776;48.260;8.928;2023-03-04T14:56:58;34.77;;;16.27;;
1725;SDS011;41776;48.260;8.928;2023-03-04T14:59:27;36.43;;;15.43;;
1725;SDS011;41776;48.260;8.928;2023-03-04T15:04:45;34.53;;;15.03;;